Time;durP1;ratioP1;P1;durP2;ratioP2;P2;SDS_P1;SDS_P2;PMS_P1;PMS_P2;Temp;Humidity;BMP_temperature;BMP_pressure;BME280_temperature;BME280_humidity;BME280_pressure;Samples;Min_cycle;Max_cycle;Signal;HPM_P1;HPM_P2
2022/07/16 00:02:47;;;;;;;4.87;4.47;;;16.70;97.40;;;;;;4972958;28;20266;-65
2022/07/16 00:05:12;;;;;;;4.90;4.40;;;16.60;96.60;;;;;;4974532;28;20873;-65
2022/07/16 00:07:38;;;;;;;4.57;4.07;;;16.60;96.60;;;;;;4969903;28;20181;-66
2022/07/16 00:10:04;;;;;;;5.17;4.73;;;16.70;96.60;;;;;;4972028;28;20259;-65
2022/07/16 00:12:30;;;;;;;5.77;5.30;;;16.80;97.50;;;;;;4971064;28;20282;-65
2022/07/16 00:14:55;;;;;;;6.40;5.90;;;16.60;99.20;;;;;;4972190;28;21011;-66
2022/07/16 00:17:21;;;;;;;5.37;4.97;;;16.60;99.30;;;;;;4972634;28;20224;-66
2022/07/16 00:19:47;;;;;;;6.70;6.07;;;16.60;99.70;;;;;;4972727;28;20673;-65
2022/07/16 00:22:12;;;;;;;6.73;6.23;;;16.50;99.90;;;;;;4970849;28;20582;-65
2022/07/16 00:24:38;;;;;;;6.63;6.13;;;16.40;99.90;;;;;;4957013;28;20203;-65
2022/07/16 00:27:03;;;;;;;5.70;5.27;;;16.30;99.90;;;;;;4972923;28;20179;-65
2022/07/16 00:29:29;;;;;;;6.40;5.90;;;16.20;99.90;;;;;;4973023;28;20223;-65
2022/07/16 00:31:55;;;;;;;6.67;5.97;;;16.10;99.90;;;;;;4966077;28;20232;-65
2022/07/16 00:34:22;;;;;;;5.87;5.37;;;16.00;99.90;;;;;;4975142;28;20185;-65
2022/07/16 00:36:49;;;;;;;9.27;6.20;;;16.00;99.90;;;;;;4973611;28;20518;-65
2022/07/16 00:39:16;;;;;;;5.73;5.13;;;16.00;99.90;;;;;;4973923;28;20423;-65
2022/07/16 00:41:44;;;;;;;5.03;4.63;;;16.00;99.90;;;;;;4972155;28;20841;-65
2022/07/16 00:44:13;;;;;;;5.20;4.83;;;16.00;99.90;;;;;;4966625;28;20462;-66
2022/07/16 00:46:39;;;;;;;5.03;4.63;;;16.00;99.90;;;;;;4974240;28;20467;-65
2022/07/16 00:49:05;;;;;;;4.83;4.43;;;16.00;99.90;;;;;;4972609;28;20514;-66
2022/07/16 00:51:32;;;;;;;5.47;4.97;;;16.10;99.90;;;;;;4974024;28;20503;-66
2022/07/16 00:53:58;;;;;;;5.73;4.40;;;16.10;99.90;;;;;;4973236;28;20438;-65
2022/07/16 00:56:24;;;;;;;4.80;4.30;;;16.00;99.90;;;;;;4974882;28;20446;-65
2022/07/16 00:58:51;;;;;;;4.93;4.53;;;16.10;99.90;;;;;;4971927;28;20502;-65
2022/07/16 01:01:17;;;;;;;7.03;5.00;;;15.90;99.90;;;;;;4971352;28;20498;-66
2022/07/16 01:03:44;;;;;;;5.17;4.67;;;15.80;99.90;;;;;;4967636;28;20464;-66
2022/07/16 01:06:10;;;;;;;5.80;5.17;;;15.80;99.90;;;;;;4974571;28;20491;-66
2022/07/16 01:08:39;;;;;;;5.77;5.13;;;15.80;99.90;;;;;;4971672;28;20467;-66
2022/07/16 01:11:06;;;;;;;4.77;4.40;;;15.80;99.90;;;;;;4981521;28;21008;-67
2022/07/16 01:13:34;;;;;;;6.57;5.63;;;15.90;99.90;;;;;;4956232;28;20470;-67
2022/07/16 01:16:00;;;;;;;7.40;4.57;;;15.90;99.90;;;;;;4968390;28;20880;-66
2022/07/16 01:18:26;;;;;;;5.40;5.00;;;15.90;99.90;;;;;;4970101;28;20450;-67
2022/07/16 01:20:51;;;;;;;5.80;5.20;;;15.80;99.90;;;;;;4972641;28;20267;-67
2022/07/16 01:23:24;;;;;;;4.83;4.43;;;15.80;99.90;;;;;;4972160;28;20231;-67
2022/07/16 01:25:51;;;;;;;5.20;4.70;;;15.80;99.90;;;;;;4970002;28;20251;-67
2022/07/16 01:28:17;;;;;;;5.43;4.93;;;15.90;99.90;;;;;;4972529;28;20432;-67
2022/07/16 01:30:43;;;;;;;4.37;4.07;;;15.80;99.90;;;;;;4972243;28;20444;-66
2022/07/16 01:33:24;;;;;;;5.17;4.73;;;15.80;99.90;;;;;;4974356;28;20945;-67
2022/07/16 01:35:51;;;;;;;5.60;5.10;;;15.80;99.90;;;;;;4972061;28;20486;-66
2022/07/16 01:38:17;;;;;;;7.03;4.87;;;15.70;99.90;;;;;;4971582;28;20443;-66
2022/07/16 01:40:43;;;;;;;5.17;4.67;;;15.60;99.90;;;;;;4972417;28;20477;-66
2022/07/16 01:43:16;;;;;;;4.67;4.27;;;15.60;99.90;;;;;;4971757;28;20227;-66
2022/07/16 01:45:43;;;;;;;6.07;4.90;;;15.50;99.90;;;;;;4972646;28;20645;-67
2022/07/16 01:48:09;;;;;;;5.70;5.30;;;15.50;99.90;;;;;;4972839;28;20526;-66
2022/07/16 01:50:35;;;;;;;5.47;4.97;;;15.50;99.90;;;;;;4971667;28;20478;-66
2022/07/16 01:53:00;;;;;;;5.10;4.60;;;15.40;99.90;;;;;;4973048;28;20850;-66
2022/07/16 01:55:26;;;;;;;4.90;4.40;;;15.40;99.90;;;;;;4972920;28;20259;-67
2022/07/16 01:57:51;;;;;;;5.23;4.83;;;15.40;99.90;;;;;;4971988;28;20263;-66
2022/07/16 02:00:17;;;;;;;5.00;4.60;;;15.40;99.90;;;;;;4978526;28;20183;-66
2022/07/16 02:02:42;;;;;;;4.40;4.00;;;15.30;99.90;;;;;;4973160;28;20204;-67
2022/07/16 02:05:08;;;;;;;5.43;5.03;;;15.40;99.90;;;;;;4973255;28;20705;-67
2022/07/16 02:07:33;;;;;;;6.33;4.30;;;15.20;99.90;;;;;;4971008;28;20199;-66
2022/07/16 02:09:59;;;;;;;5.43;4.80;;;15.20;99.90;;;;;;4971635;28;20563;-66
2022/07/16 02:12:24;;;;;;;5.63;5.10;;;15.20;99.90;;;;;;4973408;28;20200;-67
2022/07/16 02:14:50;;;;;;;5.77;4.80;;;15.00;99.90;;;;;;4970706;28;20188;-67
2022/07/16 02:17:15;;;;;;;5.13;4.73;;;15.00;99.90;;;;;;4971640;28;20180;-66
2022/07/16 02:19:41;;;;;;;9.30;4.50;;;15.10;99.90;;;;;;4970989;28;20192;-67
2022/07/16 02:22:09;;;;;;;5.03;4.43;;;15.10;99.90;;;;;;4974786;28;20557;-66
2022/07/16 02:24:35;;;;;;;5.00;4.60;;;15.20;99.90;;;;;;4972609;28;20184;-67
2022/07/16 02:27:00;;;;;;;8.30;4.80;;;15.30;99.90;;;;;;4970613;28;20431;-67
2022/07/16 02:29:26;;;;;;;7.63;4.43;;;15.20;99.90;;;;;;4970020;28;20976;-67
2022/07/16 02:31:51;;;;;;;5.00;4.60;;;15.20;99.90;;;;;;4970139;28;20215;-67
2022/07/16 02:34:17;;;;;;;5.43;5.00;;;15.00;99.90;;;;;;4971693;28;20188;-67
2022/07/16 02:36:42;;;;;;;4.83;4.43;;;15.00;99.90;;;;;;4971979;28;20193;-67
2022/07/16 02:39:08;;;;;;;7.80;5.63;;;15.10;99.90;;;;;;4970638;28;20216;-66
2022/07/16 02:41:33;;;;;;;6.17;5.37;;;15.10;99.90;;;;;;4971558;28;20295;-67
2022/07/16 02:43:59;;;;;;;6.07;5.30;;;14.90;99.90;;;;;;4973379;28;20211;-67
2022/07/16 02:46:24;;;;;;;4.77;4.00;;;14.80;99.90;;;;;;4972550;28;20200;-67
2022/07/16 02:48:50;;;;;;;5.70;5.20;;;14.70;99.90;;;;;;4964858;28;20187;-67
2022/07/16 02:51:15;;;;;;;6.80;6.10;;;14.80;99.90;;;;;;4971018;28;20219;-66
2022/07/16 02:53:41;;;;;;;5.43;4.93;;;14.70;99.90;;;;;;4971051;28;20704;-67
2022/07/16 02:56:07;;;;;;;6.37;5.77;;;14.70;99.90;;;;;;4968090;28;20239;-67
2022/07/16 02:58:32;;;;;;;6.90;5.47;;;14.60;99.90;;;;;;4969928;28;20188;-66
2022/07/16 03:00:58;;;;;;;5.37;4.87;;;14.50;99.90;;;;;;4971507;28;20220;-66
2022/07/16 03:03:23;;;;;;;5.47;5.07;;;14.40;99.90;;;;;;4974784;28;20274;-67
2022/07/16 03:05:49;;;;;;;4.80;4.40;;;14.40;99.90;;;;;;4970513;28;20767;-67
2022/07/16 03:08:15;;;;;;;8.70;5.10;;;14.30;99.90;;;;;;4970040;28;20199;-67
2022/07/16 03:10:40;;;;;;;5.87;5.33;;;14.30;99.90;;;;;;4973376;28;20192;-66
2022/07/16 03:13:06;;;;;;;6.43;5.83;;;14.30;99.90;;;;;;4984138;28;20529;-67
2022/07/16 03:15:31;;;;;;;6.07;5.50;;;14.40;99.90;;;;;;4978157;28;20184;-66
2022/07/16 03:17:57;;;;;;;7.13;5.50;;;14.40;99.90;;;;;;4970808;28;20602;-66
2022/07/16 03:20:23;;;;;;;6.60;6.10;;;14.40;99.90;;;;;;4969183;28;20238;-66
2022/07/16 03:22:49;;;;;;;5.77;4.97;;;14.30;99.90;;;;;;4969879;28;20220;-67
2022/07/16 03:25:15;;;;;;;6.17;5.60;;;14.10;99.90;;;;;;4971243;28;20471;-67
2022/07/16 03:27:41;;;;;;;5.90;5.40;;;14.00;99.90;;;;;;4974379;28;20663;-67
2022/07/16 03:30:07;;;;;;;5.77;5.03;;;14.00;99.90;;;;;;4974101;28;20579;-67
2022/07/16 03:32:32;;;;;;;5.33;4.90;;;14.00;99.90;;;;;;4974627;28;20215;-67
2022/07/16 03:34:58;;;;;;;5.90;4.10;;;14.00;99.90;;;;;;4975253;28;20440;-66
2022/07/16 03:37:23;;;;;;;5.50;5.00;;;14.10;99.90;;;;;;4975103;28;20196;-66
2022/07/16 03:39:49;;;;;;;4.83;4.53;;;14.10;99.90;;;;;;4974047;28;20188;-67
2022/07/16 03:42:15;;;;;;;5.60;4.50;;;14.20;99.90;;;;;;4980666;28;20208;-67
2022/07/16 03:44:40;;;;;;;5.00;4.27;;;14.20;99.90;;;;;;4984093;28;20188;-67
2022/07/16 03:47:06;;;;;;;5.20;4.70;;;14.20;99.90;;;;;;4974704;28;20223;-67
2022/07/16 03:49:31;;;;;;;4.80;4.40;;;14.20;99.90;;;;;;4973344;28;20215;-66
2022/07/16 03:51:57;;;;;;;4.40;4.00;;;14.20;99.90;;;;;;4974564;28;20631;-67
2022/07/16 03:54:22;;;;;;;7.40;5.53;;;14.10;99.90;;;;;;4974203;28;20180;-66
2022/07/16 03:56:48;;;;;;;5.80;4.70;;;14.10;99.90;;;;;;4974989;28;20191;-67
2022/07/16 03:59:13;;;;;;;4.13;3.83;;;14.10;99.90;;;;;;4982822;28;20180;-66
2022/07/16 04:01:39;;;;;;;5.50;4.87;;;14.20;99.90;;;;;;4974199;28;20208;-67
2022/07/16 04:04:05;;;;;;;4.70;4.30;;;14.30;99.90;;;;;;4974217;28;20188;-67
2022/07/16 04:06:30;;;;;;;5.77;5.13;;;14.30;99.90;;;;;;4974150;28;20248;-67
2022/07/16 04:08:56;;;;;;;5.43;4.70;;;14.50;99.90;;;;;;4973257;28;20187;-66
2022/07/16 04:11:21;;;;;;;5.57;5.07;;;14.50;99.90;;;;;;4980477;28;20207;-67
2022/07/16 04:13:47;;;;;;;8.93;5.30;;;14.60;99.90;;;;;;4975927;28;20187;-67
2022/07/16 04:16:12;;;;;;;7.37;5.10;;;14.70;99.90;;;;;;4973966;28;20569;-66
2022/07/16 04:18:38;;;;;;;6.40;5.80;;;14.60;99.90;;;;;;4974205;28;20214;-66
2022/07/16 04:21:05;;;;;;;6.50;5.20;;;14.50;99.90;;;;;;4974315;28;20215;-67
2022/07/16 04:23:31;;;;;;;5.33;4.93;;;14.70;99.90;;;;;;4973193;28;20184;-67
2022/07/16 04:25:57;;;;;;;5.23;4.73;;;14.90;99.90;;;;;;4984329;28;20987;-66
2022/07/16 04:28:22;;;;;;;5.10;4.70;;;15.00;99.90;;;;;;4972678;28;21013;-67
2022/07/16 04:30:48;;;;;;;6.47;5.40;;;15.10;99.90;;;;;;4972427;28;20210;-67
2022/07/16 04:33:13;;;;;;;7.63;5.27;;;15.10;99.90;;;;;;4976317;28;20212;-66
2022/07/16 04:35:39;;;;;;;5.37;4.87;;;15.20;99.90;;;;;;4974132;28;20195;-67
2022/07/16 04:38:04;;;;;;;8.83;5.70;;;15.30;99.90;;;;;;4973259;28;20216;-67
2022/07/16 04:40:30;;;;;;;5.37;4.90;;;15.40;99.90;;;;;;4971954;28;20207;-67
2022/07/16 04:42:56;;;;;;;5.90;5.30;;;15.60;99.90;;;;;;4973295;28;20184;-67
2022/07/16 04:45:22;;;;;;;7.20;4.83;;;15.70;99.90;;;;;;4973460;28;20459;-67
2022/07/16 04:47:47;;;;;;;7.67;4.87;;;15.80;99.90;;;;;;4973855;28;20184;-67
2022/07/16 04:50:13;;;;;;;5.50;5.00;;;16.00;99.90;;;;;;4972720;28;20184;-67
2022/07/16 04:52:39;;;;;;;6.87;4.90;;;16.10;99.90;;;;;;4973268;28;20226;-67
2022/07/16 04:55:05;;;;;;;5.53;4.93;;;16.20;99.90;;;;;;4966863;28;20448;-66
2022/07/16 04:57:31;;;;;;;6.00;5.40;;;16.40;99.90;;;;;;4972153;28;20677;-67
2022/07/16 04:59:57;;;;;;;9.50;4.90;;;16.60;99.90;;;;;;4972348;28;20436;-67
2022/07/16 05:05:07;;;;;;;5.80;4.83;;;16.70;99.90;;;;;;4973791;28;20645;-66
2022/07/16 05:07:33;;;;;;;5.20;4.70;;;16.80;99.90;;;;;;4974594;28;20952;-67
2022/07/16 05:09:59;;;;;;;4.50;4.10;;;16.90;99.90;;;;;;4978089;28;20445;-66
2022/07/16 05:12:25;;;;;;;4.97;4.57;;;17.10;99.90;;;;;;4978092;28;20462;-66
2022/07/16 05:14:50;;;;;;;4.87;4.47;;;17.30;99.90;;;;;;4969966;28;20574;-67
2022/07/16 05:17:16;;;;;;;5.93;5.43;;;17.50;99.90;;;;;;4971930;28;20658;-66
2022/07/16 05:19:41;;;;;;;7.60;5.90;;;17.80;99.90;;;;;;4970578;28;20192;-67
2022/07/16 05:22:07;;;;;;;5.70;5.27;;;18.00;99.90;;;;;;4970669;28;20631;-67
2022/07/16 05:24:33;;;;;;;5.53;5.13;;;18.20;99.90;;;;;;4973110;28;20180;-66
2022/07/16 05:26:58;;;;;;;6.40;5.90;;;18.40;99.90;;;;;;4971352;28;20207;-67
2022/07/16 05:29:24;;;;;;;6.07;5.57;;;18.50;99.90;;;;;;4972273;28;20546;-66
2022/07/16 05:31:50;;;;;;;5.77;5.07;;;18.70;99.90;;;;;;4973148;28;20575;-67
2022/07/16 05:34:15;;;;;;;5.93;5.40;;;18.70;99.90;;;;;;4971259;28;20176;-67
2022/07/16 05:36:41;;;;;;;5.87;5.37;;;18.80;99.90;;;;;;4971419;28;20292;-66
2022/07/16 05:39:06;;;;;;;5.53;5.13;;;19.00;99.70;;;;;;4972291;28;20184;-67
2022/07/16 05:41:32;;;;;;;6.23;5.83;;;19.30;99.10;;;;;;4971676;28;20204;-67
2022/07/16 05:43:57;;;;;;;5.47;4.87;;;19.40;98.30;;;;;;4973274;28;20654;-67
2022/07/16 05:46:23;;;;;;;4.60;4.20;;;19.40;98.00;;;;;;4977972;28;20223;-66
2022/07/16 05:48:49;;;;;;;4.70;4.37;;;19.50;97.30;;;;;;4969713;28;20192;-67
2022/07/16 05:51:14;;;;;;;5.23;4.70;;;19.60;96.70;;;;;;4973439;28;20298;-67
2022/07/16 05:53:40;;;;;;;4.80;4.37;;;19.80;95.40;;;;;;4974102;28;20207;-66
2022/07/16 05:56:06;;;;;;;5.37;4.87;;;19.80;95.30;;;;;;4971828;28;20183;-66
2022/07/16 05:58:31;;;;;;;5.53;4.50;;;20.00;94.20;;;;;;4971741;28;20581;-67
2022/07/16 06:00:57;;;;;;;4.00;3.60;;;20.10;91.70;;;;;;4971800;28;21296;-66
2022/07/16 06:03:22;;;;;;;5.90;4.10;;;20.20;91.10;;;;;;4972381;28;20216;-67
2022/07/16 06:05:48;;;;;;;4.23;3.90;;;20.20;90.60;;;;;;4971845;28;22015;-67
2022/07/16 06:08:13;;;;;;;4.20;3.90;;;20.40;89.30;;;;;;4972648;28;20530;-66
2022/07/16 06:10:39;;;;;;;3.43;2.93;;;20.50;87.90;;;;;;4976097;28;20180;-67
2022/07/16 06:13:04;;;;;;;8.03;4.30;;;20.60;86.50;;;;;;4980350;28;20188;-67
2022/07/16 06:15:30;;;;;;;4.37;3.70;;;20.70;85.00;;;;;;4982031;28;20258;-67
2022/07/16 06:17:55;;;;;;;4.17;3.80;;;20.90;81.70;;;;;;4982259;28;20215;-66
2022/07/16 06:20:22;;;;;;;6.50;3.53;;;20.90;81.50;;;;;;4980620;28;20188;-67
2022/07/16 06:22:48;;;;;;;4.80;3.70;;;21.10;81.50;;;;;;4982168;28;20211;-67
2022/07/16 06:25:15;;;;;;;3.67;3.37;;;21.10;80.30;;;;;;4984898;28;20466;-67
2022/07/16 06:27:44;;;;;;;4.47;4.00;;;21.20;80.00;;;;;;4981163;28;20274;-67
2022/07/16 06:30:10;;;;;;;3.73;3.43;;;21.30;79.20;;;;;;4973167;28;20936;-67
2022/07/16 06:32:36;;;;;;;4.30;3.43;;;21.40;78.80;;;;;;4977342;28;20999;-67
2022/07/16 06:35:01;;;;;;;4.10;3.80;;;21.50;79.20;;;;;;4985294;28;20474;-67
2022/07/16 06:37:27;;;;;;;4.33;3.93;;;21.50;78.90;;;;;;4983505;28;20271;-67
2022/07/16 06:39:52;;;;;;;4.50;4.20;;;21.50;78.50;;;;;;4976678;28;20231;-67
2022/07/16 06:42:18;;;;;;;4.47;4.07;;;21.50;78.70;;;;;;4976912;28;20204;-67
2022/07/16 06:44:43;;;;;;;3.70;3.40;;;21.70;78.60;;;;;;4975315;28;20218;-67
2022/07/16 06:47:09;;;;;;;4.23;3.83;;;21.90;77.80;;;;;;4981513;28;20199;-67
2022/07/16 06:49:34;;;;;;;5.00;3.80;;;21.90;78.10;;;;;;4980964;28;20199;-67
2022/07/16 06:52:00;;;;;;;3.30;3.00;;;22.10;76.60;;;;;;4983914;28;20216;-67
2022/07/16 06:54:25;;;;;;;7.43;6.73;;;22.10;76.20;;;;;;4981317;28;20180;-67
2022/07/16 06:56:51;;;;;;;7.50;3.60;;;22.10;76.30;;;;;;4971753;28;20179;-67
2022/07/16 06:59:17;;;;;;;5.10;3.40;;;22.20;75.40;;;;;;4970329;28;20204;-67
2022/07/16 07:01:42;;;;;;;3.97;3.57;;;22.40;75.90;;;;;;4976629;28;20208;-67
2022/07/16 07:04:07;;;;;;;8.40;4.20;;;22.50;74.40;;;;;;4971728;28;20311;-67
2022/07/16 07:06:33;;;;;;;3.87;3.40;;;22.50;73.90;;;;;;4973882;28;20203;-67
2022/07/16 07:08:59;;;;;;;4.20;3.90;;;22.50;73.70;;;;;;4981488;28;20179;-62
2022/07/16 07:11:24;;;;;;;4.83;4.40;;;22.50;73.90;;;;;;4977018;28;20266;-66
2022/07/16 07:13:50;;;;;;;4.13;3.77;;;22.80;73.90;;;;;;4973489;28;20180;-68
2022/07/16 07:16:16;;;;;;;4.27;3.87;;;23.00;72.30;;;;;;4980745;28;20311;-66
2022/07/16 07:18:42;;;;;;;3.63;3.33;;;23.30;71.50;;;;;;4973828;28;20191;-66
2022/07/16 07:21:07;;;;;;;3.60;3.40;;;23.40;70.20;;;;;;4980612;28;20459;-66
2022/07/16 07:23:33;;;;;;;3.70;3.40;;;23.70;69.80;;;;;;4980045;28;20583;-67
2022/07/16 07:25:59;;;;;;;4.07;3.43;;;24.00;67.60;;;;;;4979530;28;20208;-68
2022/07/16 07:28:24;;;;;;;4.10;3.70;;;24.00;66.40;;;;;;4971535;28;20726;-66
2022/07/16 07:30:50;;;;;;;3.77;3.43;;;23.90;66.20;;;;;;4982585;28;20263;-66
2022/07/16 07:33:15;;;;;;;4.30;3.90;;;24.00;65.30;;;;;;4970801;28;20259;-70
2022/07/16 07:35:41;;;;;;;4.33;3.37;;;24.10;64.60;;;;;;4963025;28;20214;-68
2022/07/16 07:38:07;;;;;;;4.00;3.70;;;24.30;64.10;;;;;;4972691;28;20667;-67
2022/07/16 07:40:32;;;;;;;4.47;3.77;;;24.50;62.60;;;;;;4966541;28;20275;-68
2022/07/16 07:43:03;;;;;;;3.93;3.37;;;24.50;61.40;;;;;;4977939;28;20183;-67
2022/07/16 07:45:28;;;;;;;4.80;3.63;;;24.60;62.20;;;;;;4970989;28;20295;-67
2022/07/16 07:47:54;;;;;;;4.57;4.17;;;24.90;61.40;;;;;;4978345;28;20550;-67
2022/07/16 07:50:19;;;;;;;5.20;4.33;;;25.20;60.60;;;;;;4988360;28;20172;-67
2022/07/16 07:52:45;;;;;;;3.60;3.30;;;25.40;59.60;;;;;;4974048;28;20227;-68
2022/07/16 07:55:11;;;;;;;7.30;3.73;;;25.40;59.10;;;;;;4969914;28;20188;-65
2022/07/16 07:57:36;;;;;;;3.93;2.97;;;25.30;58.90;;;;;;4971357;28;20187;-69
2022/07/16 08:00:04;;;;;;;5.60;3.53;;;25.40;58.90;;;;;;4982136;28;20207;-68
2022/07/16 08:02:30;;;;;;;4.03;3.70;;;25.50;58.90;;;;;;4986439;28;20199;-66
2022/07/16 08:04:55;;;;;;;4.10;3.70;;;25.70;58.20;;;;;;4971013;28;20506;-66
2022/07/16 08:07:21;;;;;;;4.90;4.00;;;25.90;57.30;;;;;;4969448;28;20206;-68
2022/07/16 08:09:46;;;;;;;5.23;3.70;;;26.00;57.00;;;;;;4977247;28;20263;-66
2022/07/16 08:12:12;;;;;;;7.17;6.57;;;26.10;56.80;;;;;;4973967;28;20342;-66
2022/07/16 08:14:38;;;;;;;4.60;3.70;;;25.80;56.30;;;;;;4974129;28;20234;-67
2022/07/16 08:17:03;;;;;;;3.27;3.07;;;25.80;56.70;;;;;;4976843;28;20185;-67
2022/07/16 08:19:30;;;;;;;4.03;3.10;;;25.90;55.10;;;;;;4990602;28;20392;-67
2022/07/16 08:21:56;;;;;;;2.80;2.40;;;26.10;54.10;;;;;;4984847;28;20191;-67
2022/07/16 08:27:06;;;;;;;4.03;3.07;;;26.20;53.30;;;;;;4984887;28;20190;-67
2022/07/16 08:29:32;;;;;;;5.10;2.57;;;26.30;52.40;;;;;;4986200;28;20434;-67
2022/07/16 08:31:57;;;;;;;2.60;2.40;;;26.20;51.80;;;;;;4988250;28;20742;-68
2022/07/16 08:34:24;;;;;;;3.70;2.83;;;26.10;52.20;;;;;;4984580;28;20210;-67
2022/07/16 08:36:51;;;;;;;3.10;2.77;;;26.30;52.40;;;;;;4985079;28;20197;-67
2022/07/16 08:39:17;;;;;;;7.73;2.73;;;26.60;51.80;;;;;;4981916;28;20805;-67
2022/07/16 08:41:44;;;;;;;2.50;2.30;;;26.90;50.60;;;;;;4982766;28;20826;-67
2022/07/16 08:44:11;;;;;;;4.77;2.77;;;27.20;50.40;;;;;;4976652;28;21127;-68
2022/07/16 08:46:37;;;;;;;2.50;2.30;;;27.30;50.10;;;;;;4973416;28;20471;-67
2022/07/16 08:49:03;;;;;;;4.20;2.80;;;27.70;49.40;;;;;;4972225;28;20449;-65
2022/07/16 08:51:36;;;;;;;2.70;2.43;;;27.90;49.00;;;;;;4972059;28;20609;-66
2022/07/16 08:54:16;;;;;;;6.10;2.70;;;28.10;49.00;;;;;;4972401;28;20440;-67
2022/07/16 08:56:45;;;;;;;3.43;2.53;;;28.20;47.90;;;;;;4965995;28;20460;-65
2022/07/16 08:59:12;;;;;;;2.13;1.83;;;28.30;46.90;;;;;;4977505;28;20798;-68
2022/07/16 09:01:38;;;;;;;2.30;2.20;;;28.20;47.60;;;;;;4978337;28;20459;-66
2022/07/16 09:04:04;;;;;;;4.17;2.33;;;28.30;47.00;;;;;;4975048;28;20443;-64
2022/07/16 09:06:30;;;;;;;5.77;2.33;;;28.40;46.20;;;;;;4982128;28;20762;-68
2022/07/16 09:08:56;;;;;;;2.70;2.50;;;28.20;46.30;;;;;;4975417;28;20478;-67
2022/07/16 09:11:23;;;;;;;4.13;2.90;;;28.20;47.10;;;;;;4974177;28;20494;-68
2022/07/16 09:14:19;;;;;;;3.63;2.23;;;28.30;46.70;;;;;;4983582;28;20431;-66
2022/07/16 09:16:47;;;;;;;2.47;2.27;;;28.40;46.50;;;;;;4959516;28;20531;-68
2022/07/16 09:19:16;;;;;;;2.70;2.50;;;28.60;45.60;;;;;;4983301;28;20465;-68
2022/07/16 09:22:03;;;;;;;2.43;2.23;;;28.50;45.70;;;;;;4976655;28;21035;-67
2022/07/16 09:24:47;;;;;;;4.33;2.93;;;28.90;45.20;;;;;;4972549;28;20470;-68
2022/07/16 09:27:22;;;;;;;2.20;2.00;;;28.90;45.70;;;;;;4983960;28;20553;-66
2022/07/16 09:29:50;;;;;;;6.23;2.57;;;29.10;44.50;;;;;;4984633;28;20912;-67
2022/07/16 09:32:36;;;;;;;4.60;2.90;;;29.10;44.20;;;;;;4982264;28;20452;-66
2022/07/16 09:35:10;;;;;;;2.90;2.70;;;28.90;45.00;;;;;;4983580;28;20961;-68
2022/07/16 09:37:59;;;;;;;5.17;2.23;;;29.00;43.90;;;;;;4982217;28;20447;-67
2022/07/16 09:40:40;;;;;;;4.30;2.40;;;28.70;44.20;;;;;;4977252;28;20866;-68
2022/07/16 09:43:15;;;;;;;6.03;2.40;;;28.10;43.80;;;;;;4984109;28;20434;-68
2022/07/16 09:46:08;;;;;;;3.80;2.80;;;28.20;44.50;;;;;;4985232;28;20488;-67
2022/07/16 09:48:37;;;;;;;3.57;2.60;;;28.80;44.40;;;;;;4977252;28;20467;-67
2022/07/16 09:51:14;;;;;;;6.40;2.77;;;29.50;43.80;;;;;;4983879;28;20479;-67
2022/07/16 09:53:43;;;;;;;3.13;2.70;;;29.50;42.90;;;;;;4985475;28;20446;-67
2022/07/16 09:56:11;;;;;;;2.77;2.57;;;30.00;43.10;;;;;;4969994;28;21030;-66
2022/07/16 09:58:37;;;;;;;2.47;2.27;;;30.80;42.20;;;;;;4972447;28;20537;-67
2022/07/16 10:01:04;;;;;;;2.07;1.90;;;30.90;41.70;;;;;;4979919;28;20876;-67
2022/07/16 10:03:30;;;;;;;2.43;2.23;;;31.10;41.20;;;;;;4984942;28;20198;-67
2022/07/16 10:05:56;;;;;;;2.60;2.40;;;31.30;40.70;;;;;;4987038;28;20471;-66
2022/07/16 10:08:22;;;;;;;3.33;2.50;;;31.70;39.80;;;;;;4973838;28;20544;-67
2022/07/16 10:10:49;;;;;;;3.27;2.67;;;32.00;38.70;;;;;;4968322;28;20443;-66
2022/07/16 10:13:15;;;;;;;3.13;2.93;;;32.40;37.90;;;;;;4974763;28;20439;-66
2022/07/16 10:15:42;;;;;;;2.53;2.30;;;31.80;38.30;;;;;;4961565;28;20891;-65
2022/07/16 10:18:35;;;;;;;2.30;2.20;;;32.60;38.40;;;;;;4976098;28;20442;-66
2022/07/16 10:21:07;;;;;;;3.07;2.67;;;32.20;37.90;;;;;;4983377;28;20467;-66
2022/07/16 10:23:33;;;;;;;2.47;2.37;;;31.30;39.50;;;;;;4983903;28;20534;-65
2022/07/16 10:26:02;;;;;;;2.87;2.67;;;31.90;38.10;;;;;;4970791;28;20554;-66
2022/07/16 10:28:49;;;;;;;3.27;2.97;;;32.10;37.60;;;;;;4967597;28;20466;-66
2022/07/16 10:31:38;;;;;;;2.53;2.37;;;32.90;37.20;;;;;;4977540;28;20464;-66
2022/07/16 10:34:13;;;;;;;3.30;2.43;;;33.70;36.30;;;;;;4972011;28;20839;-66
2022/07/16 10:36:52;;;;;;;2.60;2.40;;;33.60;36.20;;;;;;4970524;28;20489;-66
2022/07/16 10:39:18;;;;;;;2.87;2.60;;;35.00;34.90;;;;;;4970392;28;20475;-65
2022/07/16 10:42:00;;;;;;;2.70;2.50;;;35.10;33.80;;;;;;4971373;28;20510;-66
2022/07/16 10:44:42;;;;;;;3.17;2.40;;;34.70;32.70;;;;;;4971441;28;20447;-66
2022/07/16 10:47:08;;;;;;;2.47;2.33;;;34.50;34.00;;;;;;4972146;28;20550;-66
2022/07/16 10:49:33;;;;;;;4.87;2.43;;;34.90;33.60;;;;;;4966240;28;20993;-66
2022/07/16 10:52:01;;;;;;;4.17;3.10;;;35.80;33.10;;;;;;4971988;28;21765;-66
2022/07/16 10:54:36;;;;;;;8.07;3.63;;;37.10;31.80;;;;;;4960345;28;20208;-66
2022/07/16 10:57:10;;;;;;;2.83;2.63;;;37.40;31.20;;;;;;4978035;28;20486;-66
2022/07/16 10:59:40;;;;;;;3.27;2.20;;;37.50;31.70;;;;;;4983798;28;20477;-66
2022/07/16 11:02:08;;;;;;;2.53;2.33;;;38.70;30.00;;;;;;4976529;28;20467;-66
2022/07/16 11:04:47;;;;;;;3.13;2.50;;;38.00;29.90;;;;;;4978758;28;20470;-66
2022/07/16 11:07:18;;;;;;;2.40;2.17;;;38.30;29.70;;;;;;4975705;28;20450;-67
2022/07/16 11:09:47;;;;;;;2.80;2.17;;;36.70;30.00;;;;;;4980708;28;20849;-66
2022/07/16 11:12:17;;;;;;;2.70;2.50;;;37.50;29.80;;;;;;4982139;28;20461;-65
2022/07/16 11:14:46;;;;;;;2.10;2.00;;;38.60;29.20;;;;;;4980902;28;20963;-66
2022/07/16 11:17:13;;;;;;;2.10;2.00;;;38.60;29.00;;;;;;4971722;28;20442;-66
2022/07/16 11:19:42;;;;;;;3.17;2.40;;;38.30;29.00;;;;;;4968891;28;20534;-66
2022/07/16 11:22:08;;;;;;;2.53;2.33;;;38.30;28.60;;;;;;4977518;28;20463;-66
2022/07/16 11:24:34;;;;;;;2.80;2.60;;;38.30;28.50;;;;;;4983885;28;20481;-66
2022/07/16 11:27:01;;;;;;;2.87;2.40;;;38.10;28.20;;;;;;4979663;28;20562;-66
2022/07/16 11:29:28;;;;;;;3.30;2.57;;;39.30;28.20;;;;;;4985559;28;20188;-66
2022/07/16 11:31:55;;;;;;;2.43;2.23;;;39.20;27.40;;;;;;4981004;28;20451;-66
2022/07/16 11:34:22;;;;;;;5.80;2.47;;;40.10;27.20;;;;;;4979200;28;20448;-66
2022/07/16 11:36:50;;;;;;;2.60;1.83;;;40.60;27.10;;;;;;4957707;28;20441;-66
2022/07/16 11:39:20;;;;;;;5.60;2.87;;;41.00;26.50;;;;;;4983024;28;20423;-66
2022/07/16 11:41:48;;;;;;;1.97;1.87;;;41.20;26.10;;;;;;4981827;28;20512;-66
2022/07/16 11:44:20;;;;;;;2.50;2.30;;;40.90;26.10;;;;;;4986591;28;20487;-66
2022/07/16 11:46:46;;;;;;;4.40;4.07;;;41.10;26.00;;;;;;4962842;28;20470;-66
2022/07/16 11:49:39;;;;;;;2.67;2.47;;;41.80;25.80;;;;;;4986106;28;20529;-66
2022/07/16 11:52:24;;;;;;;4.27;2.10;;;41.80;25.80;;;;;;4982844;28;20479;-66
2022/07/16 11:54:51;;;;;;;3.10;2.47;;;42.10;25.60;;;;;;4974797;28;20521;-67
2022/07/16 11:57:17;;;;;;;2.43;2.30;;;41.20;25.80;;;;;;4973870;28;20492;-66
2022/07/16 11:59:47;;;;;;;2.37;2.03;;;40.90;25.80;;;;;;4980844;28;20466;-65
2022/07/16 12:02:18;;;;;;;3.00;2.57;;;40.90;25.60;;;;;;4974260;28;20222;-65
2022/07/16 12:04:46;;;;;;;2.80;2.60;;;41.60;25.40;;;;;;4973110;28;20431;-65
2022/07/16 12:07:32;;;;;;;4.23;2.87;;;41.70;24.80;;;;;;4967516;28;20534;-65
2022/07/16 12:09:59;;;;;;;3.40;3.10;;;40.80;24.90;;;;;;4972755;28;20976;-65
2022/07/16 12:12:36;;;;;;;2.37;2.27;;;42.20;24.70;;;;;;4974692;28;20952;-65
2022/07/16 12:15:13;;;;;;;2.57;2.30;;;42.20;24.10;;;;;;4973947;28;21194;-65
2022/07/16 12:17:41;;;;;;;2.53;2.33;;;41.30;24.60;;;;;;4976374;28;20497;-65
2022/07/16 12:20:22;;;;;;;2.50;2.33;;;42.10;24.40;;;;;;4982474;28;20439;-65
2022/07/16 12:22:57;;;;;;;2.30;1.83;;;41.40;24.10;;;;;;4986456;28;20506;-65
2022/07/16 12:25:33;;;;;;;2.10;2.00;;;40.90;24.20;;;;;;4976458;28;20498;-65
2022/07/16 12:28:17;;;;;;;2.33;2.20;;;40.30;25.10;;;;;;4982243;28;20798;-65
2022/07/16 12:30:49;;;;;;;2.10;1.90;;;41.30;25.10;;;;;;4978328;28;20438;-65
2022/07/16 12:33:23;;;;;;;1.87;1.70;;;41.60;24.00;;;;;;4980224;28;20485;-65
2022/07/16 12:35:58;;;;;;;2.27;2.17;;;41.40;24.40;;;;;;4986297;28;20437;-65
2022/07/16 12:39:08;;;;;;;2.20;2.10;;;41.40;24.40;;;;;;4982164;28;20431;-65
2022/07/16 12:41:36;;;;;;;2.30;2.20;;;43.00;24.00;;;;;;4932207;29;20560;-65
2022/07/16 12:44:11;;;;;;;2.70;2.30;;;42.50;24.20;;;;;;4932987;29;20512;-65
2022/07/16 12:46:46;;;;;;;2.53;1.97;;;41.70;24.70;;;;;;4965517;28;20975;-65
2022/07/16 12:49:17;;;;;;;1.60;1.50;;;41.80;24.50;;;;;;4974788;28;20445;-65
2022/07/16 12:51:48;;;;;;;4.03;2.50;;;42.20;24.20;;;;;;4985559;28;20569;-65
2022/07/16 12:54:16;;;;;;;2.23;2.03;;;42.80;23.90;;;;;;4971859;28;20443;-65
2022/07/16 12:59:27;;;;;;;2.33;2.17;;;41.60;24.20;;;;;;4968766;28;20493;-65
2022/07/16 13:01:53;;;;;;;2.63;2.47;;;43.20;24.00;;;;;;4972214;28;20478;-65